Windsor Locks, Connecticut
Current Conditions -  °F | °C
As of 12:51 PM on Friday 28 Nov 2014 (Local Time) from KBDL Reporting Station
Scattered Clouds Scattered Clouds  
Wind Chill: 27°   Ceiling: Unl
Heat Index: 36°   Visibility: 10mi
Dew Point: 18°   Wind: 15mph
Humidity: 48%   Direction: 300°WNW
Pressure: 30.09"   Gusts: NA
Location:  41.93°N, 72.63°W
Report Text: KBDL 281751Z 30013KT 10SM SCT040 02/M08 A3009 RMK AO2 SLP190 4/004 T00221078 10022 21006 58008
Loading
Personal Weather Stations






























Interactive Weather Map New forecast layout! Learn more

10-Day Weather Forecast

Advertisements
Track Severe Weather on mobile